createdAt,value
2023-12-20T00:00:01.322Z,90.5
2023-12-20T00:01:01.565Z,90.5
2023-12-20T00:02:01.583Z,90.5
2023-12-20T00:03:01.689Z,90.5
2023-12-20T00:04:01.853Z,90.6
2023-12-20T00:05:01.930Z,90.6
2023-12-20T00:06:01.964Z,90.6
2023-12-20T00:07:02.082Z,90.6
2023-12-20T00:08:02.377Z,90.5
2023-12-20T00:09:02.924Z,90.5
2023-12-20T00:10:01.429Z,90.5
2023-12-20T00:11:03.302Z,90.6
2023-12-20T00:12:01.573Z,90.6
2023-12-20T00:13:01.751Z,90.7
2023-12-20T00:14:01.799Z,90.8
2023-12-20T00:15:03.509Z,90.9
2023-12-20T00:16:02.062Z,90.9
2023-12-20T00:17:03.818Z,90.9
2023-12-20T00:18:02.248Z,90.9
2023-12-20T00:19:03.023Z,90.9
2023-12-20T00:20:01.479Z,90.9
2023-12-20T00:21:03.202Z,91
2023-12-20T00:22:03.309Z,91
2023-12-20T00:23:01.737Z,91
2023-12-20T00:24:01.836Z,91
2023-12-20T00:25:02.024Z,91
2023-12-20T00:26:02.027Z,91.1
2023-12-20T00:27:02.117Z,91.1
2023-12-20T00:28:02.260Z,91.1
2023-12-20T00:29:01.308Z,91.2
2023-12-20T00:30:01.411Z,91.2
2023-12-20T00:31:03.350Z,91.3
2023-12-20T00:32:01.647Z,91.3
2023-12-20T00:33:01.917Z,91.3
2023-12-20T00:34:02.032Z,91.3
2023-12-20T00:35:03.638Z,91.2
2023-12-20T00:36:02.089Z,91.3
2023-12-20T00:37:02.294Z,91.3
2023-12-20T00:38:01.293Z,91.3
2023-12-20T00:39:01.401Z,91.3
2023-12-20T00:40:03.153Z,91.3
2023-12-20T00:41:01.592Z,91.3
2023-12-20T00:42:01.717Z,91.3
2023-12-20T00:43:03.485Z,91.3
2023-12-20T00:44:01.894Z,91.3
2023-12-20T00:45:01.987Z,91.3
2023-12-20T00:46:03.874Z,91.3
2023-12-20T00:47:02.246Z,91.2
2023-12-20T00:48:03.029Z,91.2
2023-12-20T00:49:01.515Z,91.2
2023-12-20T00:50:03.173Z,91.2
2023-12-20T00:51:03.289Z,91.2
2023-12-20T00:52:03.420Z,91.1
2023-12-20T00:53:01.837Z,91.1
2023-12-20T00:54:03.589Z,91.2
2023-12-20T00:55:03.720Z,91.2
2023-12-20T00:56:02.124Z,91.2
2023-12-20T00:57:03.911Z,91.2
2023-12-20T00:58:01.385Z,91.2
2023-12-20T00:59:01.448Z,91.1
2023-12-20T01:00:03.202Z,91
2023-12-20T01:01:01.742Z,91
2023-12-20T01:02:03.495Z,91
2023-12-20T01:03:01.855Z,91
2023-12-20T01:04:03.701Z,91
2023-12-20T01:05:02.070Z,91
2023-12-20T01:06:03.833Z,90.9
2023-12-20T01:07:02.956Z,90.9
2023-12-20T01:08:01.439Z,90.9
2023-12-20T01:09:03.111Z,91
2023-12-20T01:10:01.609Z,91
2023-12-20T01:11:01.672Z,91.1
2023-12-20T01:12:03.425Z,91.2
2023-12-20T01:13:01.962Z,91.2
2023-12-20T01:14:02.033Z,91.2
2023-12-20T01:15:02.099Z,91.2
2023-12-20T01:16:03.967Z,91.2
2023-12-20T01:17:02.946Z,91.2
2023-12-20T01:18:01.442Z,91.3
2023-12-20T01:19:01.589Z,91.3
2023-12-20T01:20:01.710Z,91.3
2023-12-20T01:21:03.384Z,91.3
2023-12-20T01:22:01.895Z,91.3
2023-12-20T01:23:02.013Z,91.3
2023-12-20T01:24:02.082Z,91.4
2023-12-20T01:25:02.256Z,91.4
2023-12-20T01:26:02.883Z,91.4
2023-12-20T01:27:01.372Z,91.4
2023-12-20T01:28:03.110Z,91.4
2023-12-20T01:29:01.605Z,91.4
2023-12-20T01:30:01.660Z,91.4
2023-12-20T01:31:01.916Z,91.4
2023-12-20T01:32:01.855Z,91.4
2023-12-20T01:33:03.735Z,91.5
2023-12-20T01:34:02.195Z,91.5
2023-12-20T01:35:03.529Z,91.5
2023-12-20T01:36:01.328Z,91.6
2023-12-20T01:37:03.121Z,91.6
2023-12-20T01:38:01.517Z,91.6
2023-12-20T01:39:02.355Z,91.6
2023-12-20T01:40:03.391Z,91.6
2023-12-20T01:41:03.485Z,91.6
2023-12-20T01:42:01.947Z,91.7
2023-12-20T01:43:02.112Z,91.7
2023-12-20T01:44:02.190Z,91.7
2023-12-20T01:45:01.389Z,91.8
2023-12-20T01:46:01.418Z,91.8
2023-12-20T01:47:01.429Z,91.8
2023-12-20T01:48:03.227Z,91.7
2023-12-20T01:49:01.705Z,91.7
2023-12-20T01:50:01.817Z,91.7
2023-12-20T01:51:01.871Z,91.7
2023-12-20T01:52:02.077Z,91.7
2023-12-20T01:53:02.156Z,91.7
2023-12-20T01:54:03.880Z,91.7
2023-12-20T01:55:01.336Z,91.7
2023-12-20T01:56:01.402Z,91.7
2023-12-20T01:57:01.512Z,91.8
2023-12-20T01:58:01.646Z,91.8
2023-12-20T01:59:01.716Z,91.8
2023-12-20T02:00:01.786Z,91.8
2023-12-20T02:01:01.942Z,91.8
2023-12-20T02:02:02.087Z,91.8
2023-12-20T02:03:02.074Z,91.8
2023-12-20T02:04:02.303Z,91.8
2023-12-20T02:05:01.729Z,91.7
2023-12-20T02:06:01.415Z,91.8
2023-12-20T02:07:01.672Z,91.7
2023-12-20T02:08:03.291Z,91.8
2023-12-20T02:09:01.748Z,91.8
2023-12-20T02:10:01.879Z,91.8
2023-12-20T02:11:01.992Z,91.8
2023-12-20T02:12:02.046Z,91.8
2023-12-20T02:13:03.850Z,91.8
2023-12-20T02:14:01.246Z,91.7
2023-12-20T02:15:01.368Z,91.7
2023-12-20T02:16:03.198Z,91.7
2023-12-20T02:17:03.262Z,91.6
2023-12-20T02:18:01.677Z,91.6
2023-12-20T02:19:01.875Z,91.6
2023-12-20T02:20:03.665Z,91.6
2023-12-20T02:21:02.016Z,91.6
2023-12-20T02:22:02.155Z,91.7
2023-12-20T02:23:02.235Z,91.7
2023-12-20T02:24:02.926Z,91.7
2023-12-20T02:25:03.104Z,91.7
2023-12-20T02:26:01.553Z,91.8
2023-12-20T02:27:01.610Z,91.8
2023-12-20T02:28:01.765Z,91.8
2023-12-20T02:29:03.468Z,91.8
2023-12-20T02:30:01.980Z,91.8
2023-12-20T02:31:02.219Z,91.8
2023-12-20T02:32:02.136Z,91.8
2023-12-20T02:33:02.935Z,91.8
2023-12-20T02:34:03.024Z,91.8
2023-12-20T02:35:01.558Z,91.8
2023-12-20T02:36:01.568Z,91.8
2023-12-20T02:37:01.695Z,91.8
2023-12-20T02:38:03.428Z,91.8
2023-12-20T02:39:01.906Z,91.8
2023-12-20T02:40:02.076Z,91.8
2023-12-20T02:41:02.148Z,91.8
2023-12-20T02:42:03.853Z,91.8
2023-12-20T02:43:01.363Z,91.8
2023-12-20T02:44:03.057Z,91.7
2023-12-20T02:45:03.133Z,91.8
2023-12-20T02:46:03.331Z,91.8
2023-12-20T02:47:01.691Z,91.8
2023-12-20T02:48:03.549Z,91.8
2023-12-20T02:49:03.699Z,91.8
2023-12-20T02:50:02.269Z,91.8
2023-12-20T02:51:03.775Z,91.8
2023-12-20T02:52:03.830Z,91.8
2023-12-20T02:53:02.970Z,91.8
2023-12-20T02:54:01.445Z,91.9
2023-12-20T02:55:01.626Z,91.9
2023-12-20T02:56:01.703Z,91.8
2023-12-20T02:57:03.433Z,91.9
2023-12-20T02:58:01.896Z,91.9
2023-12-20T02:59:03.614Z,91.9
2023-12-20T03:00:03.732Z,91.9
2023-12-20T03:01:02.263Z,91.9
2023-12-20T03:02:01.505Z,91.9
2023-12-20T03:03:03.018Z,91.9
2023-12-20T03:04:01.576Z,91.9
2023-12-20T03:05:01.733Z,91.9
2023-12-20T03:06:01.788Z,91.9
2023-12-20T03:07:01.877Z,91.9
2023-12-20T03:08:01.936Z,91.8
2023-12-20T03:09:03.665Z,91.7
2023-12-20T03:10:15.370Z,91.7
2023-12-20T03:11:03.982Z,91.6
2023-12-20T03:12:01.317Z,91.6
2023-12-20T03:13:01.430Z,91.6
2023-12-20T03:14:03.215Z,91.7
2023-12-20T03:15:03.301Z,91.7
2023-12-20T03:16:01.788Z,91.7
2023-12-20T03:17:03.505Z,91.6
2023-12-20T03:18:03.775Z,91.5
2023-12-20T03:19:02.067Z,91.5
2023-12-20T03:20:02.314Z,91.5
2023-12-20T03:21:02.910Z,91.5
2023-12-20T03:22:01.360Z,91.4
2023-12-20T03:23:01.502Z,91.5
2023-12-20T03:24:01.592Z,91.5
2023-12-20T03:25:01.717Z,91.5
2023-12-20T03:26:03.435Z,91.5
2023-12-20T03:27:01.883Z,91.5
2023-12-20T03:28:02.040Z,91.4
2023-12-20T03:29:02.129Z,91.5
2023-12-20T03:30:02.207Z,91.5
2023-12-20T03:31:01.381Z,91.5
2023-12-20T03:32:01.431Z,91.5
2023-12-20T03:33:03.222Z,91.6
2023-12-20T03:34:01.723Z,91.6
2023-12-20T03:35:02.011Z,91.7
2023-12-20T03:36:01.851Z,91.7
2023-12-20T03:37:02.025Z,91.7
2023-12-20T03:38:03.756Z,91.7
2023-12-20T03:39:02.193Z,91.7
2023-12-20T03:40:01.351Z,91.7
2023-12-20T03:41:01.353Z,91.7
2023-12-20T03:42:01.489Z,91.7
2023-12-20T03:43:01.621Z,91.7
2023-12-20T03:44:03.374Z,91.7
2023-12-20T03:45:01.773Z,91.7
2023-12-20T03:46:01.906Z,91.7
2023-12-20T03:47:01.992Z,91.8
2023-12-20T03:48:02.106Z,91.8
2023-12-20T03:49:04.790Z,91.8
2023-12-20T03:50:01.364Z,91.8
2023-12-20T03:51:03.006Z,91.9
2023-12-20T03:52:03.245Z,91.8
2023-12-20T03:53:01.626Z,91.8
2023-12-20T03:54:01.725Z,91.8
2023-12-20T03:55:01.904Z,91.9
2023-12-20T03:56:01.946Z,91.9
2023-12-20T03:57:02.072Z,91.9
2023-12-20T03:58:02.191Z,92
2023-12-20T03:59:01.270Z,92
2023-12-20T04:00:01.460Z,92
2023-12-20T04:01:01.552Z,92
2023-12-20T04:02:01.614Z,92
2023-12-20T04:03:01.691Z,92
2023-12-20T04:04:01.806Z,92.1
2023-12-20T04:05:01.930Z,92.1
2023-12-20T04:06:02.085Z,92.1
2023-12-20T04:07:03.837Z,92.1
2023-12-20T04:08:02.391Z,92.1
2023-12-20T04:09:01.282Z,92.1
2023-12-20T04:10:01.459Z,92.2
2023-12-20T04:11:03.128Z,92.2
2023-12-20T04:12:03.298Z,92.3
2023-12-20T04:13:01.709Z,92.3
2023-12-20T04:14:01.835Z,92.3
2023-12-20T04:15:01.960Z,92.4
2023-12-20T04:16:02.101Z,92.4
2023-12-20T04:17:02.143Z,92.4
2023-12-20T04:18:02.358Z,92.4
2023-12-20T04:19:01.447Z,92.4
2023-12-20T04:20:01.573Z,92.4
2023-12-20T04:21:03.180Z,92.4
2023-12-20T04:22:01.721Z,92.4
2023-12-20T04:23:01.802Z,92.4
2023-12-20T04:24:01.856Z,92.5
2023-12-20T04:25:02.017Z,92.5
2023-12-20T04:26:02.100Z,92.5
2023-12-20T04:27:02.191Z,92.5
2023-12-20T04:28:01.315Z,92.5
2023-12-20T04:29:01.403Z,92.5
2023-12-20T04:30:03.162Z,92.5
2023-12-20T04:31:03.304Z,92.6
2023-12-20T04:32:01.726Z,92.6
2023-12-20T04:33:01.827Z,92.6
2023-12-20T04:34:03.630Z,92.7
2023-12-20T04:35:03.687Z,92.7
2023-12-20T04:36:02.143Z,92.7
2023-12-20T04:37:01.251Z,92.7
2023-12-20T04:38:01.351Z,92.7
2023-12-20T04:39:01.432Z,92.8
2023-12-20T04:40:03.290Z,92.8
2023-12-20T04:41:01.659Z,92.9
2023-12-20T04:42:03.423Z,92.9
2023-12-20T04:43:01.946Z,92.9
2023-12-20T04:44:02.029Z,92.9
2023-12-20T04:45:02.104Z,93
2023-12-20T04:46:03.886Z,93
2023-12-20T04:47:02.946Z,93
2023-12-20T04:48:01.484Z,93
2023-12-20T04:49:03.287Z,93
2023-12-20T04:50:03.567Z,93
2023-12-20T04:51:03.412Z,93
2023-12-20T04:52:03.526Z,93
2023-12-20T04:53:02.018Z,93
2023-12-20T04:54:02.088Z,93
2023-12-20T04:55:03.834Z,93
2023-12-20T04:56:01.266Z,93
2023-12-20T04:57:03.020Z,93
2023-12-20T04:58:03.184Z,93.1
2023-12-20T04:59:01.552Z,93.1
2023-12-20T05:00:01.685Z,93.1
2023-12-20T05:01:03.480Z,93.1
2023-12-20T05:02:02.009Z,93.1
2023-12-20T05:03:03.617Z,93.1
2023-12-20T05:04:02.093Z,93.1
2023-12-20T05:05:02.232Z,93.1
2023-12-20T05:06:01.285Z,93.1
2023-12-20T05:07:01.502Z,93.1
2023-12-20T05:08:01.576Z,93.2
2023-12-20T05:09:01.625Z,93.2
2023-12-20T05:10:03.364Z,93.2
2023-12-20T05:11:01.801Z,93.2
2023-12-20T05:12:01.988Z,93.2
2023-12-20T05:13:03.739Z,93.2
2023-12-20T05:14:02.147Z,93.3
2023-12-20T05:15:03.900Z,93.3
2023-12-20T05:16:01.388Z,93.3
2023-12-20T05:17:01.442Z,93.3
2023-12-20T05:18:01.622Z,93.4
2023-12-20T05:19:01.703Z,93.4
2023-12-20T05:20:01.786Z,93.4
2023-12-20T05:21:01.860Z,93.4
2023-12-20T05:22:03.614Z,93.4
2023-12-20T05:23:02.084Z,93.4
2023-12-20T05:24:02.229Z,93.4
2023-12-20T05:25:01.326Z,93.4
2023-12-20T05:26:03.019Z,93.4
2023-12-20T05:27:01.461Z,93.4
2023-12-20T05:28:03.266Z,93.4
2023-12-20T05:29:01.688Z,93.4
2023-12-20T05:30:03.443Z,93.4
2023-12-20T05:31:02.012Z,93.4
2023-12-20T05:32:02.021Z,93.4
2023-12-20T05:33:03.860Z,93.4
2023-12-20T05:34:02.309Z,93.4
2023-12-20T05:35:01.458Z,93.4
2023-12-20T05:36:03.082Z,93.4
2023-12-20T05:37:01.539Z,93.4
2023-12-20T05:38:03.258Z,93.4
2023-12-20T05:39:01.742Z,93.4
2023-12-20T05:40:01.863Z,93.4
2023-12-20T05:41:01.963Z,93.3
2023-12-20T05:42:02.059Z,93.3
2023-12-20T05:43:03.910Z,93.3
2023-12-20T05:44:01.284Z,93.2
2023-12-20T05:45:01.390Z,93.2
2023-12-20T05:46:01.519Z,93.1
2023-12-20T05:47:01.636Z,93.1
2023-12-20T05:48:03.400Z,93.1
2023-12-20T05:49:01.876Z,93
2023-12-20T05:50:01.916Z,93
2023-12-20T05:51:02.021Z,93
2023-12-20T05:52:02.133Z,93
2023-12-20T05:53:02.211Z,93
2023-12-20T05:54:01.370Z,93
2023-12-20T05:55:01.502Z,93
2023-12-20T05:56:01.531Z,92.9
2023-12-20T05:57:03.307Z,92.9
2023-12-20T05:58:02.506Z,92.9
2023-12-20T05:59:03.462Z,92.9
2023-12-20T06:00:03.543Z,92.9
2023-12-20T06:01:02.258Z,92.9
2023-12-20T06:02:02.167Z,92.9
2023-12-20T06:03:01.309Z,92.9
2023-12-20T06:04:01.508Z,92.9
2023-12-20T06:05:03.241Z,92.8
2023-12-20T06:06:10.783Z,92.8
2023-12-20T06:07:03.417Z,92.8
2023-12-20T06:08:01.796Z,92.8
2023-12-20T06:09:03.553Z,92.8
2023-12-20T06:10:03.722Z,92.8
2023-12-20T06:11:02.134Z,92.8
2023-12-20T06:12:03.866Z,92.8
2023-12-20T06:13:01.327Z,92.8
2023-12-20T06:14:01.438Z,92.8
2023-12-20T06:15:03.152Z,92.8
2023-12-20T06:16:01.729Z,92.8
2023-12-20T06:17:01.787Z,92.8
2023-12-20T06:18:03.531Z,92.8
2023-12-20T06:19:02.093Z,92.8
2023-12-20T06:20:02.449Z,92.7
2023-12-20T06:21:02.184Z,92.7
2023-12-20T06:22:01.386Z,92.8
2023-12-20T06:23:03.036Z,92.8
2023-12-20T06:24:01.502Z,92.8
2023-12-20T06:25:01.663Z,92.8
2023-12-20T06:26:03.331Z,92.8
2023-12-20T06:27:01.912Z,92.8
2023-12-20T06:28:03.570Z,92.8
2023-12-20T06:29:02.026Z,92.8
2023-12-20T06:30:03.878Z,92.8
2023-12-20T06:31:04.016Z,92.8
2023-12-20T06:32:01.376Z,92.9
2023-12-20T06:33:01.468Z,92.9
2023-12-20T06:34:01.674Z,92.9
2023-12-20T06:35:01.844Z,92.9
2023-12-20T06:36:03.393Z,92.8
2023-12-20T06:37:03.585Z,92.8
2023-12-20T06:38:03.611Z,92.9
2023-12-20T06:39:02.042Z,92.9
2023-12-20T06:40:02.203Z,92.9
2023-12-20T06:41:02.930Z,92.9
2023-12-20T06:42:03.015Z,92.9
2023-12-20T06:43:08.802Z,92.8
2023-12-20T06:44:01.674Z,92.7
2023-12-20T06:45:03.355Z,92.7
2023-12-20T06:46:03.525Z,92.7
2023-12-20T06:47:01.914Z,92.7
2023-12-20T06:48:02.100Z,92.7
2023-12-20T06:49:03.865Z,92.7
2023-12-20T06:50:02.512Z,92.7
2023-12-20T06:51:03.003Z,92.7
2023-12-20T06:52:03.099Z,92.7
2023-12-20T06:53:03.178Z,92.7
2023-12-20T06:54:03.283Z,92.7
2023-12-20T06:55:01.765Z,92.7
2023-12-20T06:56:01.837Z,92.7
2023-12-20T06:57:01.978Z,92.7
2023-12-20T06:58:02.083Z,92.7
2023-12-20T06:59:02.182Z,92.6
2023-12-20T07:00:02.969Z,92.6
2023-12-20T07:01:01.445Z,92.6
2023-12-20T07:02:01.483Z,92.6
2023-12-20T07:03:03.247Z,92.5
2023-12-20T07:04:01.700Z,92.5
2023-12-20T07:05:01.816Z,92.4
2023-12-20T07:06:01.887Z,92.4
2023-12-20T07:07:02.078Z,92.4
2023-12-20T07:08:03.827Z,92.4
2023-12-20T07:09:03.848Z,92.4
2023-12-20T07:10:01.456Z,92.4
2023-12-20T07:11:01.374Z,92.3
2023-12-20T07:12:01.516Z,92.2
2023-12-20T07:13:01.677Z,92.2
2023-12-20T07:14:02.169Z,92.1
2023-12-20T07:15:01.820Z,92.1
2023-12-20T07:16:01.954Z,92
2023-12-20T07:17:03.677Z,92
2023-12-20T07:18:03.940Z,92
2023-12-20T07:19:02.295Z,92
2023-12-20T07:20:03.382Z,92
2023-12-20T07:21:01.436Z,92
2023-12-20T07:22:03.166Z,92
2023-12-20T07:23:01.667Z,92
2023-12-20T07:24:01.779Z,92
2023-12-20T07:25:03.498Z,92
2023-12-20T07:26:03.544Z,92
2023-12-20T07:27:02.028Z,92
2023-12-20T07:28:02.215Z,92
2023-12-20T07:29:03.950Z,92
2023-12-20T07:30:01.417Z,92
2023-12-20T07:31:01.606Z,92
2023-12-20T07:32:03.198Z,92
2023-12-20T07:33:01.726Z,92
2023-12-20T07:34:01.807Z,92.1
2023-12-20T07:35:03.623Z,92.1
2023-12-20T07:36:02.026Z,92.1
2023-12-20T07:37:02.100Z,92.1
2023-12-20T07:38:02.171Z,92.1
2023-12-20T07:39:01.248Z,92.2
2023-12-20T07:40:01.431Z,92.2
2023-12-20T07:41:01.474Z,92.2
2023-12-20T07:42:03.183Z,92.2
2023-12-20T07:43:01.764Z,92.3
2023-12-20T07:44:01.789Z,92.4
2023-12-20T07:45:01.894Z,92.4
2023-12-20T07:46:03.634Z,92.4
2023-12-20T07:47:02.134Z,92.5
2023-12-20T07:48:02.350Z,92.5
2023-12-20T07:49:03.085Z,92.6
2023-12-20T07:50:01.612Z,92.6
2023-12-20T07:51:01.552Z,92.6
2023-12-20T07:52:03.254Z,92.7
2023-12-20T07:53:01.741Z,92.7
2023-12-20T07:54:01.936Z,92.7
2023-12-20T07:55:03.723Z,92.7
2023-12-20T07:56:02.078Z,92.7
2023-12-20T07:57:03.827Z,92.7
2023-12-20T07:58:01.352Z,92.7
2023-12-20T07:59:03.083Z,92.7
2023-12-20T08:00:01.492Z,92.7
2023-12-20T08:01:01.646Z,92.7
2023-12-20T08:02:01.836Z,92.7
2023-12-20T08:03:01.797Z,92.7
2023-12-20T08:04:02.056Z,92.7
2023-12-20T08:05:02.033Z,92.7
2023-12-20T08:06:02.249Z,92.7
2023-12-20T08:07:03.984Z,92.7
2023-12-20T08:08:01.329Z,92.7
2023-12-20T08:09:04.891Z,92.7
2023-12-20T08:10:01.640Z,92.7
2023-12-20T08:11:03.266Z,92.7
2023-12-20T08:12:03.411Z,92.7
2023-12-20T08:13:01.944Z,92.6
2023-12-20T08:14:01.980Z,92.6
2023-12-20T08:15:02.045Z,92.5
2023-12-20T08:16:04.279Z,92.4
2023-12-20T08:17:01.300Z,92.3
2023-12-20T08:18:02.361Z,92.3
2023-12-20T08:19:02.125Z,92.1
2023-12-20T08:20:04.118Z,91.9
2023-12-20T08:21:02.839Z,91.7
2023-12-20T08:22:03.061Z,91.6
2023-12-20T08:23:01.474Z,91.5
2023-12-20T08:24:01.589Z,91.4
2023-12-20T08:25:01.752Z,91.4
2023-12-20T08:26:01.849Z,91.3
2023-12-20T08:27:02.003Z,91.2
2023-12-20T08:28:02.124Z,91.1
2023-12-20T08:29:03.897Z,90.9
2023-12-20T08:30:01.353Z,90.8
2023-12-20T08:31:03.233Z,90.7
2023-12-20T08:32:01.691Z,90.6
2023-12-20T08:33:03.388Z,90.4
2023-12-20T08:34:01.898Z,90.3
2023-12-20T08:35:02.011Z,90.2
2023-12-20T08:36:02.048Z,90.1
2023-12-20T08:37:02.170Z,90.1
2023-12-20T08:38:02.920Z,90
2023-12-20T08:39:03.049Z,90
2023-12-20T08:40:03.270Z,90
2023-12-20T08:41:01.641Z,90
2023-12-20T08:42:03.329Z,90
2023-12-20T08:43:03.484Z,90.1
2023-12-20T08:44:01.960Z,90.2
2023-12-20T08:45:02.082Z,90.2
2023-12-20T08:46:03.891Z,90.3
2023-12-20T08:47:03.011Z,90.4
2023-12-20T08:48:04.915Z,90.4
2023-12-20T08:49:01.786Z,90.4
2023-12-20T08:50:03.418Z,90.5
2023-12-20T08:51:01.815Z,90.5
2023-12-20T08:52:03.561Z,90.6
2023-12-20T08:53:02.032Z,90.6
2023-12-20T08:54:02.119Z,90.6
2023-12-20T08:55:02.288Z,90.6
2023-12-20T08:56:01.350Z,90.6
2023-12-20T08:57:01.436Z,90.6
2023-12-20T08:58:03.230Z,90.7
2023-12-20T08:59:01.656Z,90.8
2023-12-20T09:00:03.388Z,90.9
2023-12-20T09:01:01.988Z,91
2023-12-20T09:02:03.641Z,90.8
2023-12-20T09:03:02.188Z,90.7
2023-12-20T09:04:02.342Z,90.6
2023-12-20T09:05:01.428Z,90.5
2023-12-20T09:06:01.436Z,90.4
2023-12-20T09:07:01.531Z,90.4
2023-12-20T09:08:01.627Z,90.3
2023-12-20T09:09:01.760Z,90.2
2023-12-20T09:10:01.916Z,90
2023-12-20T09:11:01.963Z,89.9
2023-12-20T09:12:03.672Z,89.8
2023-12-20T09:13:02.218Z,89.7
2023-12-20T09:14:02.870Z,89.7
2023-12-20T09:15:01.409Z,89.6
2023-12-20T09:16:01.605Z,89.6
2023-12-20T09:17:01.599Z,89.5
2023-12-20T09:18:01.783Z,89.3
2023-12-20T09:19:01.864Z,89.2
2023-12-20T09:20:02.082Z,89.1
2023-12-20T09:21:03.678Z,89
2023-12-20T09:22:02.166Z,88.9
2023-12-20T09:23:02.308Z,88.7
2023-12-20T09:24:02.965Z,88.4
2023-12-20T09:25:03.134Z,88.5
2023-12-20T09:26:01.530Z,88.4
2023-12-20T09:27:01.664Z,87.8
2023-12-20T09:28:01.795Z,87.6
2023-12-20T09:29:01.898Z,87.5
2023-12-20T09:30:01.974Z,87.2
2023-12-20T09:31:03.835Z,87
2023-12-20T09:32:03.898Z,86.3
2023-12-20T09:33:01.470Z,86.5
2023-12-20T09:34:03.226Z,86
2023-12-20T09:35:01.794Z,85.9
2023-12-20T09:36:01.816Z,86.4
2023-12-20T09:37:01.825Z,86.2
2023-12-20T09:38:01.892Z,85.8
2023-12-20T09:39:01.966Z,85.6
2023-12-20T09:40:02.155Z,85.8
2023-12-20T09:41:03.842Z,86
2023-12-20T09:42:02.932Z,85.7
2023-12-20T09:43:01.387Z,85.3
2023-12-20T09:44:03.108Z,85.1
2023-12-20T09:45:01.669Z,84.9
2023-12-20T09:46:03.452Z,85.3
2023-12-20T09:47:01.839Z,85.4
2023-12-20T09:48:02.113Z,85.5
2023-12-20T09:49:02.116Z,85.2
2023-12-20T09:50:02.236Z,84.8
2023-12-20T09:51:01.245Z,84.6
2023-12-20T09:52:01.398Z,84.6
2023-12-20T09:53:03.078Z,84.5
2023-12-20T09:54:01.569Z,84.7
2023-12-20T09:55:01.733Z,85
2023-12-20T09:56:01.850Z,85.2
2023-12-20T09:57:01.891Z,85.1
2023-12-20T09:58:02.148Z,85.1
2023-12-20T09:59:02.097Z,84.7
2023-12-20T10:00:02.209Z,85.1
2023-12-20T10:01:01.399Z,85
2023-12-20T10:02:01.502Z,85.2
2023-12-20T10:03:01.626Z,85.1
2023-12-20T10:04:04.969Z,85
2023-12-20T10:05:01.838Z,85.3
2023-12-20T10:06:02.243Z,85.1
2023-12-20T10:07:03.629Z,85.2
2023-12-20T10:08:04.169Z,85
2023-12-20T10:09:03.796Z,85.1
2023-12-20T10:10:02.962Z,85.2
2023-12-20T10:11:03.005Z,85.3
2023-12-20T10:12:01.465Z,85.3
2023-12-20T10:13:01.601Z,85
2023-12-20T10:14:01.710Z,85
2023-12-20T10:15:01.841Z,84.8
2023-12-20T10:16:03.590Z,85
2023-12-20T10:17:02.038Z,84.9
2023-12-20T10:18:03.813Z,84.7
2023-12-20T10:19:03.917Z,84.8
2023-12-20T10:20:01.445Z,85.1
2023-12-20T10:21:01.432Z,84.8
2023-12-20T10:22:03.226Z,85
2023-12-20T10:23:03.227Z,84.7
2023-12-20T10:24:01.750Z,85.1
2023-12-20T10:25:01.909Z,85
2023-12-20T10:26:01.967Z,85.1
2023-12-20T10:27:02.064Z,85.3
2023-12-20T10:28:02.407Z,84.9
2023-12-20T10:29:02.914Z,84.9
2023-12-20T10:30:01.414Z,84.8
2023-12-20T10:31:03.260Z,84.5
2023-12-20T10:32:03.386Z,84.8
2023-12-20T10:33:03.384Z,84.3
2023-12-20T10:34:03.498Z,84.1
2023-12-20T10:35:02.123Z,83.8
2023-12-20T10:36:02.044Z,83.8
2023-12-20T10:37:02.156Z,84.2
2023-12-20T10:38:01.273Z,84.5
2023-12-20T10:39:01.377Z,84.7
2023-12-20T10:40:03.348Z,84.2
2023-12-20T10:41:01.644Z,84.7
2023-12-20T10:42:01.732Z,84.1
2023-12-20T10:43:01.896Z,84
2023-12-20T10:44:01.944Z,83.8
2023-12-20T10:45:02.002Z,83.6
2023-12-20T10:46:02.275Z,83.4
2023-12-20T10:47:01.237Z,84
2023-12-20T10:48:01.467Z,84.1
2023-12-20T10:49:01.640Z,83.6
2023-12-20T10:50:01.717Z,83.3
2023-12-20T10:51:01.660Z,82.8
2023-12-20T10:52:01.846Z,83.1
2023-12-20T10:53:01.891Z,82.9
2023-12-20T10:54:02.061Z,82.5
2023-12-20T10:55:02.147Z,82.3
2023-12-20T10:56:03.875Z,83
2023-12-20T10:57:01.335Z,82.9
2023-12-20T10:58:03.238Z,83
2023-12-20T10:59:01.567Z,82.2
2023-12-20T11:00:01.650Z,81.7
2023-12-20T11:01:07.164Z,81.6
2023-12-20T11:02:01.969Z,81.8
2023-12-20T11:03:03.799Z,82.2
2023-12-20T11:04:02.145Z,82
2023-12-20T11:05:02.385Z,82.5
2023-12-20T11:06:01.356Z,82.6
2023-12-20T11:07:03.162Z,82.9
2023-12-20T11:08:01.545Z,82.8
2023-12-20T11:09:01.670Z,82.1
2023-12-20T11:10:01.818Z,81.7
2023-12-20T11:11:01.877Z,82.3
2023-12-20T11:12:01.967Z,82.1
2023-12-20T11:13:02.065Z,82.6
2023-12-20T11:14:03.852Z,82.6
2023-12-20T11:15:01.267Z,81.8
2023-12-20T11:16:01.460Z,80.9
2023-12-20T11:17:01.491Z,81.7
2023-12-20T11:18:01.611Z,80
2023-12-20T11:19:01.736Z,81.3
2023-12-20T11:20:03.546Z,80.2
2023-12-20T11:21:01.928Z,80.1
2023-12-20T11:22:03.693Z,79.4
2023-12-20T11:23:02.127Z,79.9
2023-12-20T11:24:02.212Z,79.8
2023-12-20T11:25:01.327Z,79.4
2023-12-20T11:26:01.486Z,79.6
2023-12-20T11:27:01.535Z,79.9
2023-12-20T11:28:01.647Z,80.6
2023-12-20T11:29:01.767Z,80.2
2023-12-20T11:30:01.885Z,79.8
2023-12-20T11:31:04.006Z,80.2
2023-12-20T11:32:02.099Z,80.2
2023-12-20T11:33:02.251Z,80.4
2023-12-20T11:34:01.369Z,80.9
2023-12-20T11:35:01.840Z,80.7
2023-12-20T11:36:03.231Z,79.9
2023-12-20T11:37:01.705Z,80
2023-12-20T11:38:01.781Z,80.1
2023-12-20T11:39:03.476Z,81
2023-12-20T11:40:02.035Z,80.2
2023-12-20T11:41:03.706Z,79.9
2023-12-20T11:42:02.204Z,80.2
2023-12-20T11:43:01.289Z,78.9
2023-12-20T11:44:01.393Z,78.8
2023-12-20T11:45:01.479Z,79
2023-12-20T11:46:01.617Z,79.6
2023-12-20T11:47:01.720Z,79
2023-12-20T11:48:01.845Z,79.7
2023-12-20T11:49:03.660Z,79.3
2023-12-20T11:50:02.123Z,78.8
2023-12-20T11:51:02.100Z,80.3
2023-12-20T11:52:02.287Z,79.1
2023-12-20T11:53:01.360Z,77.4
2023-12-20T11:54:03.026Z,78.1
2023-12-20T11:55:01.608Z,78.4
2023-12-20T11:56:01.722Z,78
2023-12-20T11:57:01.798Z,78.4
2023-12-20T11:58:01.910Z,77.6
2023-12-20T11:59:13.323Z,77.6
2023-12-20T12:00:03.751Z,77
2023-12-20T12:01:02.231Z,76.9
2023-12-20T12:02:01.411Z,76.2
2023-12-20T12:03:01.406Z,75.9
2023-12-20T12:04:03.265Z,76.4
2023-12-20T12:05:01.679Z,77.4
2023-12-20T12:06:03.727Z,77.1
2023-12-20T12:07:02.000Z,76.1
2023-12-20T12:08:02.030Z,76.3
2023-12-20T12:09:02.242Z,75.7
2023-12-20T12:10:01.333Z,76.2
2023-12-20T12:11:01.439Z,76.3
2023-12-20T12:12:01.524Z,76.5
2023-12-20T12:13:01.682Z,76.7
2023-12-20T12:14:03.464Z,76.5
2023-12-20T12:15:03.527Z,76.9
2023-12-20T12:16:02.258Z,76.8
2023-12-20T12:17:03.773Z,76
2023-12-20T12:19:01.349Z,76
2023-12-20T12:20:01.570Z,75.6
2023-12-20T12:21:01.638Z,75.3
2023-12-20T12:22:03.367Z,75.7
2023-12-20T12:23:01.851Z,75.9
2023-12-20T12:24:01.973Z,76.4
2023-12-20T12:25:02.259Z,75.9
2023-12-20T12:26:02.230Z,75.4
2023-12-20T12:27:03.087Z,76.4
2023-12-20T12:28:01.489Z,75.5
2023-12-20T12:29:01.505Z,75.4
2023-12-20T12:30:03.279Z,76.4
2023-12-20T12:31:03.547Z,75.2
2023-12-20T12:32:01.931Z,75.3
2023-12-20T12:33:03.691Z,75.6
2023-12-20T12:34:02.278Z,75.8
2023-12-20T12:35:03.937Z,76.6
2023-12-20T12:36:01.297Z,76.8
2023-12-20T12:37:03.106Z,75.6
2023-12-20T12:38:03.170Z,76.6
2023-12-20T12:39:01.648Z,76.7
2023-12-20T12:40:01.781Z,76
2023-12-20T12:41:01.885Z,77
2023-12-20T12:42:01.961Z,76.6
2023-12-20T12:43:03.753Z,76.9
2023-12-20T12:44:08.331Z,74.9
2023-12-20T12:45:01.336Z,75.3
2023-12-20T12:46:01.425Z,76.5
2023-12-20T12:47:03.212Z,75.5
2023-12-20T12:48:01.697Z,74.7
2023-12-20T12:49:03.469Z,75.7
2023-12-20T12:50:03.703Z,76.3
2023-12-20T12:51:01.986Z,76.2
2023-12-20T12:52:02.134Z,75.7
2023-12-20T12:53:02.206Z,75.9
2023-12-20T12:54:01.294Z,76.1
2023-12-20T12:55:03.098Z,75.6
2023-12-20T12:56:03.162Z,76.4
2023-12-20T12:57:01.641Z,76.3
2023-12-20T12:58:03.469Z,76.4
2023-12-20T12:59:01.843Z,76.5
2023-12-20T13:00:03.570Z,76.5
2023-12-20T13:01:03.775Z,76.4
2023-12-20T13:02:02.217Z,77
2023-12-20T13:03:01.255Z,76.6
2023-12-20T13:04:03.101Z,76.4
2023-12-20T13:05:01.607Z,76.8
2023-12-20T13:06:01.621Z,76.2
2023-12-20T13:07:03.421Z,76.5
2023-12-20T13:08:01.863Z,76.3
2023-12-20T13:09:01.951Z,76.7
2023-12-20T13:10:02.085Z,76.5
2023-12-20T13:11:03.798Z,76.7
2023-12-20T13:12:02.251Z,76.3
2023-12-20T13:13:01.511Z,76.6
2023-12-20T13:14:03.097Z,76.9
2023-12-20T13:15:03.207Z,77
2023-12-20T13:16:01.654Z,76.4
2023-12-20T13:17:01.785Z,76.3
2023-12-20T13:18:03.665Z,76.5
2023-12-20T13:19:02.173Z,76.4
2023-12-20T13:20:03.757Z,76.1
2023-12-20T13:21:02.197Z,77.3
2023-12-20T13:22:01.349Z,76.6
2023-12-20T13:23:01.423Z,76.5
2023-12-20T13:24:01.538Z,76.6
2023-12-20T13:25:01.699Z,76.8